Time,TemperatureF,DewpointF,PressureIn,WindDirection,WindDirectionDegrees,WindSpeedMPH,WindSpeedGustMPH,Humidity,HourlyPrecipIn,Conditions,Clouds,dailyrainin,SoftwareType,DateUTC
2013-07-15 00:00:00,68.9,66.2,30.19,South,188,0.0,8.0,91,0.00,,,0.00,Wunderground v.1.15,2013-07-15 05:00:00,
2013-07-15 00:05:00,68.8,66.1,30.19,South,188,0.0,8.0,91,0.00,,,0.00,Wunderground v.1.15,2013-07-15 05:05:00,
2013-07-15 00:10:00,68.7,66.0,30.19,South,188,0.0,8.0,91,0.00,,,0.00,Wunderground v.1.15,2013-07-15 05:10:00,
2013-07-15 00:15:00,68.7,66.0,30.19,South,188,0.0,8.0,91,0.00,,,0.00,Wunderground v.1.15,2013-07-15 05:15:00,
2013-07-15 00:20:00,68.4,65.7,30.19,South,188,0.0,8.0,91,0.00,,,0.00,Wunderground v.1.15,2013-07-15 05:20:00,
2013-07-15 00:25:00,68.3,65.6,30.19,South,188,0.0,8.0,91,0.00,,,0.00,Wunderground v.1.15,2013-07-15 05:25:00,
2013-07-15 00:30:00,68.2,65.5,30.19,South,188,0.0,8.0,91,0.00,,,0.00,Wunderground v.1.15,2013-07-15 05:30:00,
2013-07-15 00:35:00,68.2,65.8,30.19,South,188,0.0,8.0,92,0.00,,,0.00,Wunderground v.1.15,2013-07-15 05:35:00,
2013-07-15 00:40:00,68.2,65.8,30.19,South,188,0.0,8.0,92,0.00,,,0.00,Wunderground v.1.15,2013-07-15 05:40:00,
2013-07-15 00:45:00,68.3,65.9,30.19,South,188,0.0,8.0,92,0.00,,,0.00,Wunderground v.1.15,2013-07-15 05:45:00,
2013-07-15 00:50:00,68.2,65.8,30.19,South,188,0.0,8.0,92,0.00,,,0.00,Wunderground v.1.15,2013-07-15 05:50:00,
2013-07-15 00:55:00,68.1,65.7,30.19,South,188,0.0,8.0,92,0.00,,,0.00,Wunderground v.1.15,2013-07-15 05:55:00,
2013-07-15 01:00:00,68.1,65.7,30.19,South,188,0.0,8.0,92,0.00,,,0.00,Wunderground v.1.15,2013-07-15 06:00:00,
2013-07-15 01:05:00,67.9,65.5,30.19,South,188,0.0,8.0,92,0.00,,,0.00,Wunderground v.1.15,2013-07-15 06:05:00,
2013-07-15 01:10:00,67.8,65.4,30.20,South,188,0.0,8.0,92,0.00,,,0.00,Wunderground v.1.15,2013-07-15 06:10:00,
2013-07-15 01:15:00,67.9,65.8,30.19,South,188,0.0,8.0,93,0.00,,,0.00,Wunderground v.1.15,2013-07-15 06:15:00,
2013-07-15 01:20:00,67.8,65.4,30.19,South,188,0.0,8.0,92,0.00,,,0.00,Wunderground v.1.15,2013-07-15 06:20:00,
2013-07-15 01:25:00,67.6,65.2,30.20,South,188,0.0,8.0,92,0.00,,,0.00,Wunderground v.1.15,2013-07-15 06:25:00,
2013-07-15 01:30:00,67.6,65.5,30.20,South,188,0.0,8.0,93,0.00,,,0.00,Wunderground v.1.15,2013-07-15 06:30:00,
2013-07-15 01:35:00,67.5,65.4,30.20,South,188,0.0,8.0,93,0.00,,,0.00,Wunderground v.1.15,2013-07-15 06:35:00,
2013-07-15 01:40:00,67.5,65.4,30.19,South,188,0.0,8.0,93,0.00,,,0.00,Wunderground v.1.15,2013-07-15 06:40:00,
2013-07-15 01:45:00,67.6,65.5,30.19,South,188,0.0,8.0,93,0.00,,,0.00,Wunderground v.1.15,2013-07-15 06:45:00,
2013-07-15 01:50:00,67.5,65.4,30.20,South,188,0.0,8.0,93,0.00,,,0.00,Wunderground v.1.15,2013-07-15 06:50:00,
2013-07-15 01:55:00,67.4,65.3,30.20,South,188,0.0,8.0,93,0.00,,,0.00,Wunderground v.1.15,2013-07-15 06:55:00,
2013-07-15 02:00:00,67.3,65.2,30.20,South,188,0.0,8.0,93,0.00,,,0.00,Wunderground v.1.15,2013-07-15 07:00:00,
2013-07-15 02:05:00,67.2,65.1,30.20,South,188,0.0,8.0,93,0.00,,,0.00,Wunderground v.1.15,2013-07-15 07:05:00,
2013-07-15 02:10:00,67.0,64.9,30.20,South,188,0.0,8.0,93,0.00,,,0.00,Wunderground v.1.15,2013-07-15 07:10:00,
2013-07-15 02:15:00,66.9,64.8,30.20,South,188,0.0,8.0,93,0.00,,,0.00,Wunderground v.1.15,2013-07-15 07:15:00,
2013-07-15 02:20:00,66.8,64.7,30.20,South,188,0.0,8.0,93,0.00,,,0.00,Wunderground v.1.15,2013-07-15 07:20:00,
2013-07-15 02:25:00,66.8,64.7,30.20,South,188,0.0,8.0,93,0.00,,,0.00,Wunderground v.1.15,2013-07-15 07:25:00,
2013-07-15 02:30:00,66.9,64.8,30.20,South,188,0.0,8.0,93,0.00,,,0.00,Wunderground v.1.15,2013-07-15 07:30:00,
2013-07-15 02:35:00,67.1,65.3,30.20,SSW,197,1.0,8.0,94,0.00,,,0.00,Wunderground v.1.15,2013-07-15 07:35:00,
2013-07-15 02:40:00,67.0,64.9,30.20,SSW,197,1.0,1.0,93,0.00,,,0.00,Wunderground v.1.15,2013-07-15 07:40:00,
2013-07-15 02:45:00,67.0,65.2,30.20,SSW,197,0.0,8.0,94,0.00,,,0.00,Wunderground v.1.15,2013-07-15 07:45:00,
2013-07-15 02:50:00,67.0,65.2,30.20,SSW,197,0.0,8.0,94,0.00,,,0.00,Wunderground v.1.15,2013-07-15 07:50:00,
2013-07-15 02:55:00,66.7,64.9,30.20,SSW,197,0.0,8.0,94,0.00,,,0.00,Wunderground v.1.15,2013-07-15 07:55:00,
2013-07-15 03:00:00,66.7,64.9,30.20,SSW,197,0.0,8.0,94,0.00,,,0.00,Wunderground v.1.15,2013-07-15 08:00:00,
2013-07-15 03:05:00,66.5,64.7,30.20,SSW,197,0.0,8.0,94,0.00,,,0.00,Wunderground v.1.15,2013-07-15 08:05:00,
2013-07-15 03:10:00,66.4,64.6,30.21,SSW,197,0.0,8.0,94,0.00,,,0.00,Wunderground v.1.15,2013-07-15 08:10:00,
2013-07-15 03:15:00,66.2,64.1,30.21,SSW,197,0.0,8.0,93,0.00,,,0.00,Wunderground v.1.15,2013-07-15 08:15:00,
2013-07-15 03:20:00,66.2,64.4,30.22,SSW,197,0.0,8.0,94,0.00,,,0.00,Wunderground v.1.15,2013-07-15 08:20:00,
2013-07-15 03:25:00,66.1,64.3,30.22,SSW,197,1.0,8.0,94,0.00,,,0.00,Wunderground v.1.15,2013-07-15 08:25:00,
2013-07-15 03:30:00,66.0,64.2,30.22,SSW,197,1.0,1.0,94,0.00,,,0.00,Wunderground v.1.15,2013-07-15 08:30:00,
2013-07-15 03:35:00,65.9,64.1,30.22,SSW,197,0.0,8.0,94,0.00,,,0.00,Wunderground v.1.15,2013-07-15 08:35:00,
2013-07-15 03:40:00,66.0,64.2,30.22,SSW,197,0.0,8.0,94,0.00,,,0.00,Wunderground v.1.15,2013-07-15 08:40:00,
2013-07-15 03:45:00,66.0,64.2,30.22,SSW,197,0.0,8.0,94,0.00,,,0.00,Wunderground v.1.15,2013-07-15 08:45:00,
2013-07-15 03:55:00,65.6,63.8,30.22,SSW,197,0.0,8.0,94,0.00,,,0.00,Wunderground v.1.15,2013-07-15 08:55:00,
2013-07-15 04:00:00,65.5,63.7,30.22,SSW,197,0.0,8.0,94,0.00,,,0.00,Wunderground v.1.15,2013-07-15 09:00:00,
2013-07-15 04:05:00,65.5,63.7,30.22,SSW,197,0.0,8.0,94,0.00,,,0.00,Wunderground v.1.15,2013-07-15 09:05:00,
2013-07-15 04:10:00,65.4,63.6,30.22,SSW,197,0.0,8.0,94,0.00,,,0.00,Wunderground v.1.15,2013-07-15 09:10:00,
2013-07-15 04:15:00,65.3,63.5,30.22,SSW,197,0.0,8.0,94,0.00,,,0.00,Wunderground v.1.15,2013-07-15 09:15:00,
2013-07-15 04:20:00,65.1,63.3,30.22,SSW,197,0.0,8.0,94,0.00,,,0.00,Wunderground v.1.15,2013-07-15 09:20:00,
2013-07-15 04:25:00,65.0,63.2,30.22,SSW,197,0.0,8.0,94,0.00,,,0.00,Wunderground v.1.15,2013-07-15 09:25:00,
2013-07-15 04:30:00,65.0,63.5,30.22,SSW,197,0.0,8.0,95,0.00,,,0.00,Wunderground v.1.15,2013-07-15 09:30:00,
2013-07-15 04:40:00,65.0,63.5,30.22,SSW,197,0.0,8.0,95,0.00,,,0.00,Wunderground v.1.15,2013-07-15 09:40:00,
2013-07-15 04:50:00,65.0,63.2,30.22,SSW,197,0.0,8.0,94,0.00,,,0.00,Wunderground v.1.15,2013-07-15 09:50:00,
2013-07-15 05:00:00,64.8,63.3,30.22,SSW,197,0.0,8.0,95,0.00,,,0.00,Wunderground v.1.15,2013-07-15 10:00:00,
2013-07-15 05:05:00,64.7,62.9,30.23,SSW,197,0.0,8.0,94,0.00,,,0.00,Wunderground v.1.15,2013-07-15 10:05:00,
2013-07-15 05:10:00,64.4,62.6,30.23,SSW,197,0.0,8.0,94,0.00,,,0.00,Wunderground v.1.15,2013-07-15 10:10:00,
2013-07-15 05:15:00,64.4,62.9,30.23,SSW,197,0.0,8.0,95,0.00,,,0.00,Wunderground v.1.15,2013-07-15 10:15:00,
2013-07-15 05:20:00,64.4,62.9,30.23,SSW,197,0.0,8.0,95,0.00,,,0.00,Wunderground v.1.15,2013-07-15 10:20:00,
2013-07-15 05:25:00,64.6,63.1,30.23,SSW,197,0.0,8.0,95,0.00,,,0.00,Wunderground v.1.15,2013-07-15 10:25:00,
2013-07-15 05:30:00,64.5,63.0,30.23,SSW,197,0.0,8.0,95,0.00,,,0.00,Wunderground v.1.15,2013-07-15 10:30:00,
2013-07-15 05:35:00,64.4,62.9,30.24,SSW,197,0.0,8.0,95,0.00,,,0.00,Wunderground v.1.15,2013-07-15 10:35:00,
2013-07-15 05:40:00,64.5,63.0,30.24,SSW,197,0.0,8.0,95,0.00,,,0.00,Wunderground v.1.15,2013-07-15 10:40:00,
2013-07-15 05:45:00,64.7,63.2,30.24,SSW,197,0.0,8.0,95,0.00,,,0.00,Wunderground v.1.15,2013-07-15 10:45:00,
2013-07-15 05:50:00,64.7,63.2,30.24,SSW,197,0.0,8.0,95,0.00,,,0.00,Wunderground v.1.15,2013-07-15 10:50:00,
2013-07-15 05:55:00,64.7,63.2,30.24,SSW,197,0.0,8.0,95,0.00,,,0.00,Wunderground v.1.15,2013-07-15 10:55:00,
2013-07-15 06:00:00,64.9,63.4,30.24,SSW,197,0.0,8.0,95,0.00,,,0.00,Wunderground v.1.15,2013-07-15 11:00:00,
2013-07-15 06:05:00,65.0,63.5,30.24,SSW,197,0.0,8.0,95,0.00,,,0.00,Wunderground v.1.15,2013-07-15 11:05:00,
2013-07-15 06:15:00,65.6,64.1,30.24,SSW,197,0.0,8.0,95,0.00,,,0.00,Wunderground v.1.15,2013-07-15 11:15:00,
2013-07-15 06:20:00,65.7,64.2,30.24,SSW,197,0.0,8.0,95,0.00,,,0.00,Wunderground v.1.15,2013-07-15 11:20:00,
2013-07-15 06:25:00,65.9,64.4,30.24,SSW,197,0.0,8.0,95,0.00,,,0.00,Wunderground v.1.15,2013-07-15 11:25:00,
2013-07-15 06:30:00,66.3,65.1,30.24,SSW,197,0.0,8.0,96,0.00,,,0.00,Wunderground v.1.15,2013-07-15 11:30:00,
2013-07-15 06:35:00,66.7,65.2,30.24,SSW,197,0.0,8.0,95,0.00,,,0.00,Wunderground v.1.15,2013-07-15 11:35:00,
2013-07-15 06:40:00,67.0,65.5,30.24,SSW,197,0.0,8.0,95,0.00,,,0.00,Wunderground v.1.15,2013-07-15 11:40:00,
2013-07-15 06:45:00,67.4,66.2,30.24,SSW,197,0.0,8.0,96,0.00,,,0.00,Wunderground v.1.15,2013-07-15 11:45:00,
2013-07-15 06:50:00,68.3,67.1,30.24,SSW,197,0.0,8.0,96,0.00,,,0.00,Wunderground v.1.15,2013-07-15 11:50:00,
2013-07-15 06:55:00,68.7,67.2,30.24,SSW,197,0.0,8.0,95,0.00,,,0.00,Wunderground v.1.15,2013-07-15 11:55:00,
2013-07-15 07:00:00,69.1,67.6,30.24,SSW,197,0.0,8.0,95,0.00,,,0.00,Wunderground v.1.15,2013-07-15 12:00:00,
2013-07-15 07:05:00,69.5,68.0,30.24,SSW,197,0.0,8.0,95,0.00,,,0.00,Wunderground v.1.15,2013-07-15 12:05:00,
2013-07-15 07:10:00,70.1,68.6,30.24,South,183,1.0,8.0,95,0.00,,,0.00,Wunderground v.1.15,2013-07-15 12:10:00,
2013-07-15 07:15:00,70.6,69.1,30.25,SSW,206,2.0,8.0,95,0.00,,,0.00,Wunderground v.1.15,2013-07-15 12:15:00,
2013-07-15 07:20:00,71.1,69.6,30.25,SSW,211,1.0,8.0,95,0.00,,,0.00,Wunderground v.1.15,2013-07-15 12:20:00,
2013-07-15 07:25:00,71.5,70.0,30.24,SSW,200,1.0,8.0,95,0.00,,,0.00,Wunderground v.1.15,2013-07-15 12:25:00,
2013-07-15 07:30:00,71.9,70.4,30.25,SSW,192,1.0,8.0,95,0.00,,,0.00,Wunderground v.1.15,2013-07-15 12:30:00,
2013-07-15 07:35:00,72.4,70.9,30.24,South,178,1.0,8.0,95,0.00,,,0.00,Wunderground v.1.15,2013-07-15 12:35:00,
2013-07-15 07:40:00,72.7,70.9,30.25,SW,219,0.0,8.0,94,0.00,,,0.00,Wunderground v.1.15,2013-07-15 12:40:00,
2013-07-15 07:45:00,73.0,71.2,30.25,SW,228,0.0,8.0,94,0.00,,,0.00,Wunderground v.1.15,2013-07-15 12:45:00,
2013-07-15 07:50:00,73.3,71.5,30.25,WSW,242,0.0,8.0,94,0.00,,,0.00,Wunderground v.1.15,2013-07-15 12:50:00,
2013-07-15 07:55:00,73.7,71.5,30.26,WSW,248,0.0,8.0,93,0.00,,,0.00,Wunderground v.1.15,2013-07-15 12:55:00,
2013-07-15 08:00:00,74.0,71.8,30.25,SSW,195,0.0,8.0,93,0.00,,,0.00,Wunderground v.1.15,2013-07-15 13:00:00,
2013-07-15 08:05:00,74.5,72.0,30.25,WSW,240,0.0,8.0,92,0.00,,,0.00,Wunderground v.1.15,2013-07-15 13:05:00,
2013-07-15 08:10:00,74.8,72.0,30.25,WSW,242,0.0,8.0,91,0.00,,,0.00,Wunderground v.1.15,2013-07-15 13:10:00,
2013-07-15 08:15:00,75.1,72.3,30.25,South,176,0.0,8.0,91,0.00,,,0.00,Wunderground v.1.15,2013-07-15 13:15:00,
2013-07-15 08:20:00,75.4,72.3,30.25,SW,225,0.0,8.0,90,0.00,,,0.00,Wunderground v.1.15,2013-07-15 13:20:00,
2013-07-15 08:25:00,75.8,72.3,30.25,South,170,0.0,8.0,89,0.00,,,0.00,Wunderground v.1.15,2013-07-15 13:25:00,
2013-07-15 08:30:00,76.4,72.6,30.25,SE,144,0.0,8.0,88,0.00,,,0.00,Wunderground v.1.15,2013-07-15 13:30:00,
2013-07-15 08:35:00,76.9,72.7,30.25,SSE,156,0.0,8.0,87,0.00,,,0.00,Wunderground v.1.15,2013-07-15 13:35:00,
2013-07-15 08:40:00,77.4,72.5,30.25,SW,231,0.0,8.0,85,0.00,,,0.00,Wunderground v.1.15,2013-07-15 13:40:00,
2013-07-15 08:45:00,77.6,72.4,30.25,SSE,161,0.0,8.0,84,0.00,,,0.00,Wunderground v.1.15,2013-07-15 13:45:00,
2013-07-15 08:50:00,78.1,72.5,30.25,SSE,161,0.0,8.0,83,0.00,,,0.00,Wunderground v.1.15,2013-07-15 13:50:00,
2013-07-15 08:55:00,78.6,72.3,30.25,East,90,0.0,8.0,81,0.00,,,0.00,Wunderground v.1.15,2013-07-15 13:55:00,
2013-07-15 09:00:00,79.0,72.3,30.25,East,85,0.0,8.0,80,0.00,,,0.00,Wunderground v.1.15,2013-07-15 14:00:00,
2013-07-15 09:05:00,79.3,71.8,30.25,West,271,0.0,8.0,78,0.00,,,0.00,Wunderground v.1.15,2013-07-15 14:05:00,
2013-07-15 09:10:00,79.5,71.7,30.25,SW,236,0.0,8.0,77,0.00,,,0.00,Wunderground v.1.15,2013-07-15 14:10:00,
2013-07-15 09:15:00,79.7,71.5,30.25,West,264,0.0,8.0,76,0.00,,,0.00,Wunderground v.1.15,2013-07-15 14:15:00,
2013-07-15 09:20:00,80.1,71.8,30.25,WSW,248,0.0,8.0,76,0.00,,,0.00,Wunderground v.1.15,2013-07-15 14:20:00,
2013-07-15 09:25:00,80.3,71.3,30.25,WSW,255,0.0,8.0,74,0.00,,,0.00,Wunderground v.1.15,2013-07-15 14:25:00,
2013-07-15 09:30:00,80.6,71.5,30.25,WSW,255,0.0,8.0,74,0.00,,,0.00,Wunderground v.1.15,2013-07-15 14:30:00,
2013-07-15 09:35:00,80.9,71.8,30.25,South,185,0.0,8.0,74,0.00,,,0.00,Wunderground v.1.15,2013-07-15 14:35:00,
2013-07-15 09:45:00,81.9,72.4,30.25,ENE,76,0.0,8.0,73,0.00,,,0.00,Wunderground v.1.15,2013-07-15 14:45:00,
2013-07-15 09:50:00,82.2,72.7,30.25,SW,223,0.0,8.0,73,0.00,,,0.00,Wunderground v.1.15,2013-07-15 14:50:00,
2013-07-15 09:55:00,81.8,71.9,30.25,East,97,0.0,8.0,72,0.00,,,0.00,Wunderground v.1.15,2013-07-15 14:55:00,
2013-07-15 10:05:00,81.6,71.7,30.25,SE,131,0.0,8.0,72,0.00,,,0.00,Wunderground v.1.15,2013-07-15 15:05:00,
2013-07-15 10:15:00,81.4,71.5,30.25,ESE,109,0.0,8.0,72,0.00,,,0.00,Wunderground v.1.15,2013-07-15 15:15:00,
2013-07-15 10:20:00,81.5,72.0,30.25,SE,128,0.0,8.0,73,0.00,,,0.00,Wunderground v.1.15,2013-07-15 15:20:00,
2013-07-15 10:25:00,81.8,72.3,30.25,SE,138,0.0,8.0,73,0.00,,,0.00,Wunderground v.1.15,2013-07-15 15:25:00,
2013-07-15 10:30:00,81.7,71.8,30.25,SE,127,0.0,8.0,72,0.00,,,0.00,Wunderground v.1.15,2013-07-15 15:30:00,
2013-07-15 10:35:00,81.6,71.3,30.25,ESE,122,0.0,8.0,71,0.00,,,0.00,Wunderground v.1.15,2013-07-15 15:35:00,
2013-07-15 10:45:00,82.1,72.2,30.25,East,96,0.0,8.0,72,0.00,,,0.00,Wunderground v.1.15,2013-07-15 15:45:00,
2013-07-15 10:50:00,82.4,72.0,30.25,East,99,0.0,8.0,71,0.00,,,0.00,Wunderground v.1.15,2013-07-15 15:50:00,
2013-07-15 10:55:00,82.5,71.7,30.25,ESE,111,0.0,8.0,70,0.00,,,0.00,Wunderground v.1.15,2013-07-15 15:55:00,
2013-07-15 11:00:00,82.3,71.5,30.25,SE,124,0.0,8.0,70,0.00,,,0.00,Wunderground v.1.15,2013-07-15 16:00:00,
2013-07-15 11:05:00,82.4,71.2,30.25,SE,140,0.0,8.0,69,0.00,,,0.00,Wunderground v.1.15,2013-07-15 16:05:00,
2013-07-15 11:10:00,82.6,71.4,30.25,ESE,117,0.0,8.0,69,0.00,,,0.00,Wunderground v.1.15,2013-07-15 16:10:00,
2013-07-15 11:15:00,82.6,71.0,30.25,East,98,0.0,8.0,68,0.00,,,0.00,Wunderground v.1.15,2013-07-15 16:15:00,
2013-07-15 11:20:00,82.7,70.6,30.25,SSW,197,0.0,8.0,67,0.00,,,0.00,Wunderground v.1.15,2013-07-15 16:20:00,
2013-07-15 11:25:00,82.5,70.0,30.25,ESE,123,0.0,8.0,66,0.00,,,0.00,Wunderground v.1.15,2013-07-15 16:25:00,
2013-07-15 11:35:00,82.4,70.3,30.25,SE,129,0.0,8.0,67,0.00,,,0.00,Wunderground v.1.15,2013-07-15 16:35:00,
2013-07-15 11:40:00,82.9,70.4,30.25,SE,125,0.0,8.0,66,0.00,,,0.00,Wunderground v.1.15,2013-07-15 16:40:00,
2013-07-15 11:45:00,83.1,70.6,30.25,East,90,0.0,8.0,66,0.00,,,0.00,Wunderground v.1.15,2013-07-15 16:45:00,
2013-07-15 11:55:00,83.3,70.8,30.25,SSE,156,0.0,8.0,66,0.00,,,0.00,Wunderground v.1.15,2013-07-15 16:55:00,
2013-07-15 12:00:00,83.6,71.5,30.25,East,92,0.0,8.0,67,0.00,,,0.00,Wunderground v.1.15,2013-07-15 17:00:00,
2013-07-15 12:05:00,83.5,70.0,30.25,East,101,0.0,8.0,64,0.00,,,0.00,Wunderground v.1.15,2013-07-15 17:05:00,
2013-07-15 12:10:00,83.4,69.9,30.25,SE,126,0.0,8.0,64,0.00,,,0.00,Wunderground v.1.15,2013-07-15 17:10:00,
2013-07-15 12:15:00,83.3,70.3,30.25,ESE,120,0.0,8.0,65,0.00,,,0.00,Wunderground v.1.15,2013-07-15 17:15:00,
2013-07-15 12:20:00,83.3,69.8,30.25,SE,134,0.0,8.0,64,0.00,,,0.00,Wunderground v.1.15,2013-07-15 17:20:00,
2013-07-15 12:25:00,83.5,70.0,30.25,SE,143,0.0,8.0,64,0.00,,,0.00,Wunderground v.1.15,2013-07-15 17:25:00,
2013-07-15 12:30:00,83.7,69.8,30.25,SE,135,0.0,8.0,63,0.00,,,0.00,Wunderground v.1.15,2013-07-15 17:30:00,
2013-07-15 12:35:00,84.1,70.1,30.25,East,88,0.0,8.0,63,0.00,,,0.00,Wunderground v.1.15,2013-07-15 17:35:00,
2013-07-15 12:45:00,84.4,70.0,30.25,SE,141,0.0,8.0,62,0.00,,,0.00,Wunderground v.1.15,2013-07-15 17:45:00,
2013-07-15 12:55:00,84.5,70.5,30.25,SSE,167,0.0,8.0,63,0.00,,,0.00,Wunderground v.1.15,2013-07-15 17:55:00,
2013-07-15 13:00:00,84.6,70.1,30.25,SSE,157,0.0,8.0,62,0.00,,,0.00,Wunderground v.1.15,2013-07-15 18:00:00,
2013-07-15 13:05:00,84.7,69.3,30.25,ESE,116,0.0,8.0,60,0.00,,,0.00,Wunderground v.1.15,2013-07-15 18:05:00,
2013-07-15 13:10:00,84.8,69.9,30.25,SSW,202,0.0,8.0,61,0.00,,,0.00,Wunderground v.1.15,2013-07-15 18:10:00,
2013-07-15 13:15:00,85.1,69.7,30.25,SE,129,0.0,8.0,60,0.00,,,0.00,Wunderground v.1.15,2013-07-15 18:15:00,
2013-07-15 13:20:00,85.0,69.6,30.24,SSE,161,0.0,8.0,60,0.00,,,0.00,Wunderground v.1.15,2013-07-15 18:20:00,
2013-07-15 13:30:00,85.2,68.8,30.24,South,184,0.0,8.0,58,0.00,,,0.00,Wunderground v.1.15,2013-07-15 18:30:00,
2013-07-15 13:40:00,85.4,69.4,30.24,South,180,0.0,8.0,59,0.00,,,0.00,Wunderground v.1.15,2013-07-15 18:40:00,
2013-07-15 13:45:00,85.6,69.1,30.24,South,176,0.0,8.0,58,0.00,,,0.00,Wunderground v.1.15,2013-07-15 18:45:00,
2013-07-15 13:50:00,85.9,69.4,30.23,SE,130,0.0,8.0,58,0.00,,,0.00,Wunderground v.1.15,2013-07-15 18:50:00,
2013-07-15 14:00:00,86.2,69.2,30.23,ESE,123,0.0,8.0,57,0.00,,,0.00,Wunderground v.1.15,2013-07-15 19:00:00,
2013-07-15 14:05:00,86.2,68.1,30.23,SW,220,0.0,8.0,55,0.00,,,0.00,Wunderground v.1.15,2013-07-15 19:05:00,
2013-07-15 14:10:00,86.5,70.0,30.23,SE,142,0.0,8.0,58,0.00,,,0.00,Wunderground v.1.15,2013-07-15 19:10:00,
2013-07-15 14:15:00,86.5,70.0,30.23,ESE,107,0.0,8.0,58,0.00,,,0.00,Wunderground v.1.15,2013-07-15 19:15:00,
2013-07-15 14:20:00,86.1,69.6,30.23,ESE,121,0.0,8.0,58,0.00,,,0.00,Wunderground v.1.15,2013-07-15 19:20:00,
2013-07-15 14:25:00,85.9,69.4,30.23,SSE,153,0.0,8.0,58,0.00,,,0.00,Wunderground v.1.15,2013-07-15 19:25:00,
2013-07-15 14:30:00,85.9,70.4,30.23,East,98,0.0,8.0,60,0.00,,,0.00,Wunderground v.1.15,2013-07-15 19:30:00,
2013-07-15 14:40:00,85.7,70.2,30.23,SSE,161,0.0,8.0,60,0.00,,,0.00,Wunderground v.1.15,2013-07-15 19:40:00,
2013-07-15 14:45:00,85.9,69.9,30.23,ESE,113,0.0,8.0,59,0.00,,,0.00,Wunderground v.1.15,2013-07-15 19:45:00,
2013-07-15 14:50:00,85.8,69.8,30.23,SSE,153,0.0,8.0,59,0.00,,,0.00,Wunderground v.1.15,2013-07-15 19:50:00,
2013-07-15 14:55:00,85.9,69.9,30.23,SSE,148,0.0,8.0,59,0.00,,,0.00,Wunderground v.1.15,2013-07-15 19:55:00,
2013-07-15 15:10:00,86.0,70.0,30.22,SE,144,0.0,8.0,59,0.00,,,0.00,Wunderground v.1.15,2013-07-15 20:10:00,
2013-07-15 15:20:00,85.9,69.4,30.22,SSW,194,0.0,8.0,58,0.00,,,0.00,Wunderground v.1.15,2013-07-15 20:20:00,
2013-07-15 15:30:00,86.0,69.5,30.22,SSE,162,0.0,8.0,58,0.00,,,0.00,Wunderground v.1.15,2013-07-15 20:30:00,
2013-07-15 15:35:00,86.1,70.1,30.22,SSW,205,0.0,8.0,59,0.00,,,0.00,Wunderground v.1.15,2013-07-15 20:35:00,
2013-07-15 15:40:00,86.3,70.3,30.22,SSE,150,0.0,8.0,59,0.00,,,0.00,Wunderground v.1.15,2013-07-15 20:40:00,
2013-07-15 15:50:00,86.3,70.3,30.22,South,174,0.0,8.0,59,0.00,,,0.00,Wunderground v.1.15,2013-07-15 20:50:00,
2013-07-15 15:55:00,86.4,69.9,30.22,SSW,209,0.0,8.0,58,0.00,,,0.00,Wunderground v.1.15,2013-07-15 20:55:00,
2013-07-15 16:05:00,86.1,70.1,30.21,SE,136,0.0,8.0,59,0.00,,,0.00,Wunderground v.1.15,2013-07-15 21:05:00,
2013-07-15 16:10:00,85.8,70.3,30.21,South,181,0.0,8.0,60,0.00,,,0.00,Wunderground v.1.15,2013-07-15 21:10:00,
2013-07-15 16:15:00,85.9,68.9,30.21,South,172,0.0,8.0,57,0.00,,,0.00,Wunderground v.1.15,2013-07-15 21:15:00,
2013-07-15 16:25:00,85.7,69.2,30.21,South,186,0.0,8.0,58,0.00,,,0.00,Wunderground v.1.15,2013-07-15 21:25:00,
2013-07-15 16:30:00,86.0,69.5,30.21,ESE,112,0.0,8.0,58,0.00,,,0.00,Wunderground v.1.15,2013-07-15 21:30:00,
2013-07-15 16:40:00,85.8,69.3,30.21,SSE,167,0.0,8.0,58,0.00,,,0.00,Wunderground v.1.15,2013-07-15 21:40:00,
2013-07-15 16:45:00,85.7,69.7,30.21,SSE,154,0.0,8.0,59,0.00,,,0.00,Wunderground v.1.15,2013-07-15 21:45:00,
2013-07-15 16:50:00,85.7,69.2,30.20,SW,223,0.0,8.0,58,0.00,,,0.00,Wunderground v.1.15,2013-07-15 21:50:00,
2013-07-15 16:55:00,85.7,69.2,30.21,SE,145,0.0,8.0,58,0.00,,,0.00,Wunderground v.1.15,2013-07-15 21:55:00,
2013-07-15 17:05:00,85.3,69.3,30.20,South,191,0.0,8.0,59,0.00,,,0.00,Wunderground v.1.15,2013-07-15 22:05:00,
2013-07-15 17:10:00,85.3,69.8,30.20,SSW,200,0.0,8.0,60,0.00,,,0.00,Wunderground v.1.15,2013-07-15 22:10:00,
2013-07-15 17:15:00,85.1,69.2,30.21,South,184,0.0,8.0,59,0.00,,,0.00,Wunderground v.1.15,2013-07-15 22:15:00,
2013-07-15 17:20:00,85.1,69.2,30.21,SSE,162,0.0,8.0,59,0.00,,,0.00,Wunderground v.1.15,2013-07-15 22:20:00,
2013-07-15 17:25:00,85.2,69.3,30.20,SE,133,0.0,8.0,59,0.00,,,0.00,Wunderground v.1.15,2013-07-15 22:25:00,
2013-07-15 17:30:00,85.0,68.6,30.20,SSW,196,0.0,8.0,58,0.00,,,0.00,Wunderground v.1.15,2013-07-15 22:30:00,
2013-07-15 17:35:00,84.8,68.4,30.20,SE,143,0.0,8.0,58,0.00,,,0.00,Wunderground v.1.15,2013-07-15 22:35:00,
2013-07-15 17:40:00,84.7,68.8,30.20,SE,134,0.0,8.0,59,0.00,,,0.00,Wunderground v.1.15,2013-07-15 22:40:00,
2013-07-15 17:45:00,84.7,68.8,30.20,ESE,115,0.0,8.0,59,0.00,,,0.00,Wunderground v.1.15,2013-07-15 22:45:00,
2013-07-15 17:50:00,84.6,69.2,30.20,ESE,115,0.0,8.0,60,0.00,,,0.00,Wunderground v.1.15,2013-07-15 22:50:00,
2013-07-15 18:00:00,84.3,67.4,30.20,South,175,0.0,8.0,57,0.00,,,0.00,Wunderground v.1.15,2013-07-15 23:00:00,
2013-07-15 18:05:00,84.2,68.3,30.20,SE,137,0.0,8.0,59,0.00,,,0.00,Wunderground v.1.15,2013-07-15 23:05:00,
2013-07-15 18:10:00,84.0,68.1,30.20,South,169,0.0,8.0,59,0.00,,,0.00,Wunderground v.1.15,2013-07-15 23:10:00,
2013-07-15 18:15:00,84.0,68.1,30.20,SSW,193,0.0,8.0,59,0.00,,,0.00,Wunderground v.1.15,2013-07-15 23:15:00,
2013-07-15 18:20:00,84.0,68.1,30.20,SE,136,0.0,8.0,59,0.00,,,0.00,Wunderground v.1.15,2013-07-15 23:20:00,
2013-07-15 18:30:00,83.8,67.9,30.20,South,171,0.0,8.0,59,0.00,,,0.00,Wunderground v.1.15,2013-07-15 23:30:00,
2013-07-15 18:35:00,83.7,68.3,30.19,SSE,153,0.0,8.0,60,0.00,,,0.00,Wunderground v.1.15,2013-07-15 23:35:00,
2013-07-15 18:40:00,83.7,68.3,30.19,SE,142,0.0,8.0,60,0.00,,,0.00,Wunderground v.1.15,2013-07-15 23:40:00,
2013-07-15 18:45:00,83.6,68.2,30.19,SE,138,0.0,8.0,60,0.00,,,0.00,Wunderground v.1.15,2013-07-15 23:45:00,
2013-07-15 18:50:00,83.5,67.7,30.19,SE,145,0.0,8.0,59,0.00,,,0.00,Wunderground v.1.15,2013-07-15 23:50:00,
2013-07-15 18:55:00,83.3,68.0,30.19,SSE,167,0.0,8.0,60,0.00,,,0.00,Wunderground v.1.15,2013-07-15 23:55:00,
2013-07-15 19:05:00,83.2,67.9,30.19,SSE,165,0.0,8.0,60,0.00,,,0.00,Wunderground v.1.15,2013-07-16 00:05:00,
2013-07-15 19:10:00,83.0,68.2,30.19,South,175,0.0,8.0,61,0.00,,,0.00,Wunderground v.1.15,2013-07-16 00:10:00,
2013-07-15 19:15:00,82.8,68.0,30.19,South,175,0.0,8.0,61,0.00,,,0.00,Wunderground v.1.15,2013-07-16 00:15:00,
2013-07-15 19:20:00,82.3,67.5,30.19,SE,140,0.0,8.0,61,0.00,,,0.00,Wunderground v.1.15,2013-07-16 00:20:00,
2013-07-15 19:25:00,81.9,68.1,30.19,ESE,105,0.0,8.0,63,0.00,,,0.00,Wunderground v.1.15,2013-07-16 00:25:00,
2013-07-15 19:30:00,81.8,68.4,30.19,SE,143,0.0,8.0,64,0.00,,,0.00,Wunderground v.1.15,2013-07-16 00:30:00,
2013-07-15 19:35:00,81.7,67.9,30.19,SE,143,0.0,8.0,63,0.00,,,0.00,Wunderground v.1.15,2013-07-16 00:35:00,
2013-07-15 19:40:00,81.7,67.9,30.19,South,181,0.0,8.0,63,0.00,,,0.00,Wunderground v.1.15,2013-07-16 00:40:00,
2013-07-15 19:45:00,81.6,67.8,30.19,SE,141,0.0,8.0,63,0.00,,,0.00,Wunderground v.1.15,2013-07-16 00:45:00,
2013-07-15 19:50:00,81.5,67.7,30.19,SE,136,0.0,8.0,63,0.00,,,0.00,Wunderground v.1.15,2013-07-16 00:50:00,
2013-07-15 20:00:00,81.1,67.8,30.19,South,172,0.0,8.0,64,0.00,,,0.00,Wunderground v.1.15,2013-07-16 01:00:00,
2013-07-15 20:05:00,80.8,67.5,30.19,South,169,0.0,8.0,64,0.00,,,0.00,Wunderground v.1.15,2013-07-16 01:05:00,
2013-07-15 20:10:00,80.4,67.6,30.19,SSW,194,0.0,8.0,65,0.00,,,0.00,Wunderground v.1.15,2013-07-16 01:10:00,
2013-07-15 20:15:00,80.1,67.7,30.19,SSW,196,0.0,8.0,66,0.00,,,0.00,Wunderground v.1.15,2013-07-16 01:15:00,
2013-07-15 20:20:00,79.9,68.0,30.19,SSW,202,0.0,8.0,67,0.00,,,0.00,Wunderground v.1.15,2013-07-16 01:20:00,
2013-07-15 20:25:00,79.6,68.1,30.19,SSW,202,0.0,8.0,68,0.00,,,0.00,Wunderground v.1.15,2013-07-16 01:25:00,
2013-07-15 20:30:00,79.3,68.2,30.19,SSW,202,0.0,8.0,69,0.00,,,0.00,Wunderground v.1.15,2013-07-16 01:30:00,
2013-07-15 20:35:00,78.9,68.3,30.19,SSW,202,0.0,8.0,70,0.00,,,0.00,Wunderground v.1.15,2013-07-16 01:35:00,
2013-07-15 20:40:00,78.6,68.4,30.19,SSW,202,0.0,8.0,71,0.00,,,0.00,Wunderground v.1.15,2013-07-16 01:40:00,
2013-07-15 20:45:00,78.1,67.9,30.19,SSW,202,0.0,8.0,71,0.00,,,0.00,Wunderground v.1.15,2013-07-16 01:45:00,
2013-07-15 20:55:00,77.2,68.3,30.19,SSW,202,0.0,8.0,74,0.00,,,0.00,Wunderground v.1.15,2013-07-16 01:55:00,
2013-07-15 21:10:00,76.1,68.4,30.20,SSW,202,0.0,8.0,77,0.00,,,0.00,Wunderground v.1.15,2013-07-16 02:10:00,
2013-07-15 21:15:00,75.7,68.4,30.19,SSW,202,0.0,8.0,78,0.00,,,0.00,Wunderground v.1.15,2013-07-16 02:15:00,
2013-07-15 21:20:00,75.5,68.5,30.19,SSW,202,0.0,8.0,79,0.00,,,0.00,Wunderground v.1.15,2013-07-16 02:20:00,
2013-07-15 21:30:00,75.0,68.4,30.20,SSW,202,0.0,8.0,80,0.00,,,0.00,Wunderground v.1.15,2013-07-16 02:30:00,
2013-07-15 21:40:00,74.8,68.9,30.20,SSW,203,0.0,8.0,82,0.00,,,0.00,Wunderground v.1.15,2013-07-16 02:40:00,
2013-07-15 21:45:00,74.8,68.9,30.20,SSW,192,0.0,8.0,82,0.00,,,0.00,Wunderground v.1.15,2013-07-16 02:45:00,
2013-07-15 21:55:00,74.9,69.0,30.20,SSW,192,0.0,8.0,82,0.00,,,0.00,Wunderground v.1.15,2013-07-16 02:55:00,
2013-07-15 22:05:00,74.7,68.8,30.20,SSW,202,0.0,8.0,82,0.00,,,0.00,Wunderground v.1.15,2013-07-16 03:05:00,
2013-07-15 22:10:00,74.6,68.7,30.20,South,184,0.0,8.0,82,0.00,,,0.00,Wunderground v.1.15,2013-07-16 03:10:00,
2013-07-15 22:15:00,74.7,68.8,30.20,South,188,0.0,8.0,82,0.00,,,0.00,Wunderground v.1.15,2013-07-16 03:15:00,
2013-07-15 22:20:00,74.7,68.5,30.20,SSE,159,0.0,8.0,81,0.00,,,0.00,Wunderground v.1.15,2013-07-16 03:20:00,
2013-07-15 22:30:00,74.8,68.2,30.20,SW,218,0.0,8.0,80,0.00,,,0.00,Wunderground v.1.15,2013-07-16 03:30:00,
2013-07-15 22:40:00,75.3,67.6,30.20,SW,225,0.0,8.0,77,0.00,,,0.00,Wunderground v.1.15,2013-07-16 03:40:00,
2013-07-15 22:45:00,75.2,67.5,30.20,SW,236,0.0,8.0,77,0.00,,,0.00,Wunderground v.1.15,2013-07-16 03:45:00,
2013-07-15 22:50:00,75.1,67.0,30.20,SW,216,0.0,8.0,76,0.00,,,0.00,Wunderground v.1.15,2013-07-16 03:50:00,
2013-07-15 23:00:00,75.0,66.9,30.20,SSE,161,0.0,8.0,76,0.00,,,0.00,Wunderground v.1.15,2013-07-16 04:00:00,
2013-07-15 23:05:00,75.1,66.6,30.20,South,171,0.0,8.0,75,0.00,,,0.00,Wunderground v.1.15,2013-07-16 04:05:00,
2013-07-15 23:15:00,75.0,66.9,30.20,South,176,0.0,8.0,76,0.00,,,0.00,Wunderground v.1.15,2013-07-16 04:15:00,
2013-07-15 23:20:00,74.8,66.7,30.20,South,176,0.0,8.0,76,0.00,,,0.00,Wunderground v.1.15,2013-07-16 04:20:00,
2013-07-15 23:25:00,74.7,67.0,30.20,South,176,0.0,8.0,77,0.00,,,0.00,Wunderground v.1.15,2013-07-16 04:25:00,
2013-07-15 23:30:00,74.3,66.6,30.20,South,176,0.0,8.0,77,0.00,,,0.00,Wunderground v.1.15,2013-07-16 04:30:00,
2013-07-15 23:35:00,74.0,66.7,30.20,South,176,0.0,8.0,78,0.00,,,0.00,Wunderground v.1.15,2013-07-16 04:35:00,
2013-07-15 23:40:00,73.8,66.9,30.20,South,178,0.0,8.0,79,0.00,,,0.00,Wunderground v.1.15,2013-07-16 04:40:00,
2013-07-15 23:45:00,73.7,66.8,30.20,SSE,166,0.0,8.0,79,0.00,,,0.00,Wunderground v.1.15,2013-07-16 04:45:00,
2013-07-15 23:50:00,73.6,67.0,30.20,SSE,166,0.0,8.0,80,0.00,,,0.00,Wunderground v.1.15,2013-07-16 04:50:00,
2013-07-15 23:55:00,73.4,66.9,30.20,SSE,166,0.0,8.0,80,0.00,,,0.00,Wunderground v.1.15,2013-07-16 04:55:00,